createdAt,value
2019-01-29T00:00:21.823Z,99.90
2019-01-29T00:02:51.287Z,99.90
2019-01-29T00:05:19.723Z,99.90
2019-01-29T00:07:50.899Z,99.90
2019-01-29T00:10:19.335Z,99.90
2019-01-29T00:12:47.793Z,99.90
2019-01-29T00:15:16.383Z,99.90
2019-01-29T00:17:44.837Z,99.90
2019-01-29T00:20:13.562Z,99.90
2019-01-29T00:22:42.075Z,99.90
2019-01-29T00:25:11.039Z,99.90
2019-01-29T00:27:39.559Z,99.90
2019-01-29T00:30:13.508Z,99.90
2019-01-29T00:32:42.026Z,99.90
2019-01-29T00:35:10.632Z,99.90
2019-01-29T00:37:39.104Z,99.90
2019-01-29T00:40:12.850Z,99.90
2019-01-29T00:42:41.305Z,99.90
2019-01-29T00:45:15.526Z,99.90
2019-01-29T00:47:43.963Z,99.90
2019-01-29T00:50:14.344Z,99.90
2019-01-29T00:52:42.856Z,99.90
2019-01-29T00:55:16.628Z,99.90
2019-01-29T00:57:45.218Z,99.90
2019-01-29T01:00:19.531Z,99.90
2019-01-29T01:02:48.078Z,99.90
2019-01-29T01:05:17.252Z,99.90
2019-01-29T01:07:45.826Z,99.90
2019-01-29T01:10:19.444Z,99.90
2019-01-29T01:12:47.879Z,99.90
2019-01-29T01:15:16.532Z,99.90
2019-01-29T01:17:44.971Z,99.90
2019-01-29T01:20:15.670Z,99.90
2019-01-29T01:22:50.712Z,99.90
2019-01-29T01:25:15.402Z,99.90
2019-01-29T01:27:43.841Z,99.90
2019-01-29T01:30:17.352Z,99.90
2019-01-29T01:32:46.853Z,99.90
2019-01-29T01:35:15.473Z,99.90
2019-01-29T01:37:45.222Z,99.90
2019-01-29T01:40:21.743Z,99.90
2019-01-29T01:42:54.947Z,99.90
2019-01-29T01:45:23.401Z,99.90
2019-01-29T01:47:51.847Z,99.90
2019-01-29T01:50:20.357Z,99.90
2019-01-29T01:52:48.831Z,99.90
2019-01-29T01:55:18.007Z,99.90
2019-01-29T01:57:52.499Z,99.90
2019-01-29T02:00:22.484Z,99.90
2019-01-29T02:02:52.129Z,99.90
2019-01-29T02:05:20.559Z,99.90
2019-01-29T02:07:49.018Z,99.90
2019-01-29T02:10:25.555Z,99.90
2019-01-29T02:12:54.144Z,99.90
2019-01-29T02:15:22.824Z,99.90
2019-01-29T02:17:51.278Z,99.90
2019-01-29T02:20:19.775Z,99.90
2019-01-29T02:22:48.240Z,99.90
2019-01-29T02:25:16.747Z,99.90
2019-01-29T02:27:45.259Z,99.90
2019-01-29T02:30:19.075Z,99.90
2019-01-29T02:32:47.583Z,99.90
2019-01-29T02:35:17.096Z,99.90
2019-01-29T02:37:45.692Z,99.90
2019-01-29T02:40:20.039Z,99.90
2019-01-29T02:42:54.543Z,99.90
2019-01-29T02:45:23.913Z,99.90
2019-01-29T02:50:39.239Z,99.90
2019-01-29T02:53:17.842Z,99.90
2019-01-29T02:55:37.856Z,99.90
2019-01-29T02:58:06.300Z,99.90
2019-01-29T03:00:34.743Z,99.90
2019-01-29T03:03:03.209Z,99.90
2019-01-29T03:05:31.781Z,99.90
2019-01-29T03:08:00.277Z,99.90
2019-01-29T03:10:28.859Z,99.90
2019-01-29T03:12:57.369Z,99.90
2019-01-29T03:15:28.926Z,99.90
2019-01-29T03:17:57.439Z,99.90
2019-01-29T03:20:26.028Z,99.90
2019-01-29T03:22:54.528Z,99.90
2019-01-29T03:25:23.048Z,99.90
2019-01-29T03:27:51.470Z,99.90
2019-01-29T03:30:21.732Z,99.90
2019-01-29T03:32:50.252Z,99.90
2019-01-29T03:35:19.043Z,99.90
2019-01-29T03:37:47.608Z,99.90
2019-01-29T03:40:22.131Z,99.90
2019-01-29T03:42:50.558Z,99.90
2019-01-29T03:45:19.128Z,99.90
2019-01-29T03:47:47.653Z,99.90
2019-01-29T03:50:19.087Z,99.90
2019-01-29T03:52:47.613Z,99.90
2019-01-29T03:55:16.137Z,99.90
2019-01-29T03:57:44.796Z,99.90
2019-01-29T04:00:25.211Z,99.90
2019-01-29T04:02:53.722Z,99.90
2019-01-29T04:05:22.167Z,99.90
2019-01-29T04:07:50.957Z,99.90
2019-01-29T04:10:19.535Z,99.90
2019-01-29T04:12:48.043Z,99.90
2019-01-29T04:15:18.320Z,99.90
2019-01-29T04:17:47.133Z,99.90
2019-01-29T04:20:17.808Z,99.90
2019-01-29T04:22:46.394Z,99.90
2019-01-29T04:25:14.896Z,99.90
2019-01-29T04:27:43.423Z,99.90
2019-01-29T04:30:17.177Z,99.90
2019-01-29T04:32:45.636Z,99.90
2019-01-29T04:35:14.220Z,99.90
2019-01-29T04:37:42.810Z,99.90
2019-01-29T04:40:16.286Z,99.90
2019-01-29T04:42:44.791Z,99.90
2019-01-29T04:45:15.318Z,99.90
2019-01-29T04:47:43.884Z,99.90
2019-01-29T04:50:14.782Z,99.90
2019-01-29T04:52:43.227Z,99.90
2019-01-29T04:55:14.085Z,99.90
2019-01-29T04:57:42.599Z,99.90
2019-01-29T05:00:17.156Z,99.90
2019-01-29T05:02:45.605Z,99.90
2019-01-29T05:05:21.823Z,99.90
2019-01-29T05:07:50.263Z,99.90
2019-01-29T05:10:20.258Z,99.90
2019-01-29T05:12:49.031Z,99.90
2019-01-29T05:15:19.426Z,99.90
2019-01-29T05:17:48.220Z,99.90
2019-01-29T05:20:19.642Z,99.90
2019-01-29T05:22:48.317Z,99.90
2019-01-29T05:25:17.018Z,99.90
2019-01-29T05:27:45.637Z,99.90
2019-01-29T05:30:20.699Z,99.90
2019-01-29T05:32:49.688Z,99.90
2019-01-29T05:35:18.260Z,99.90
2019-01-29T05:37:46.718Z,99.90
2019-01-29T05:40:22.728Z,99.90
2019-01-29T05:42:51.413Z,99.90
2019-01-29T05:45:21.290Z,99.90
2019-01-29T05:47:49.813Z,99.90
2019-01-29T05:50:18.889Z,99.90
2019-01-29T05:52:47.415Z,99.90
2019-01-29T05:55:16.795Z,99.90
2019-01-29T05:57:45.349Z,99.90
2019-01-29T06:00:27.124Z,99.90
2019-01-29T06:02:55.711Z,99.90
2019-01-29T06:05:32.936Z,99.90
2019-01-29T06:08:05.268Z,99.90
2019-01-29T06:10:34.007Z,99.90
2019-01-29T06:13:02.455Z,99.90
2019-01-29T06:15:36.802Z,99.90
2019-01-29T06:18:12.659Z,99.90
2019-01-29T06:20:41.096Z,99.90
2019-01-29T06:23:09.536Z,99.90
2019-01-29T06:25:43.717Z,99.90
2019-01-29T06:28:12.226Z,99.90
2019-01-29T06:30:41.254Z,99.90
2019-01-29T06:33:09.691Z,99.90
2019-01-29T06:35:38.148Z,99.90
2019-01-29T06:38:06.584Z,99.90
2019-01-29T06:40:41.819Z,99.90
2019-01-29T06:43:10.319Z,99.90
2019-01-29T06:45:44.545Z,99.90
2019-01-29T06:48:12.980Z,99.90
2019-01-29T06:50:41.432Z,99.90
2019-01-29T06:53:09.871Z,99.90
2019-01-29T06:55:38.320Z,99.90
2019-01-29T06:58:06.767Z,99.90
2019-01-29T07:00:35.355Z,99.90
2019-01-29T07:03:03.943Z,99.90
2019-01-29T07:05:41.470Z,99.90
2019-01-29T07:08:09.919Z,99.90
2019-01-29T07:10:39.551Z,99.90
2019-01-29T07:13:07.998Z,99.90
2019-01-29T07:15:53.130Z,99.90
2019-01-29T07:18:26.064Z,99.90
2019-01-29T07:20:54.635Z,99.90
2019-01-29T07:23:23.159Z,99.90
2019-01-29T07:25:51.602Z,99.90
2019-01-29T07:28:20.060Z,99.90
2019-01-29T07:30:48.490Z,99.90
2019-01-29T07:33:17.006Z,99.90
2019-01-29T07:35:45.431Z,99.90
2019-01-29T07:38:13.888Z,99.90
2019-01-29T07:40:43.308Z,99.90
2019-01-29T07:43:11.761Z,99.90
2019-01-29T07:45:40.199Z,99.90
2019-01-29T07:48:08.655Z,99.90
2019-01-29T07:50:37.091Z,99.90
2019-01-29T07:53:06.683Z,99.90
2019-01-29T07:55:35.191Z,99.90
2019-01-29T07:58:03.724Z,99.90
2019-01-29T08:00:32.158Z,99.90
2019-01-29T08:03:00.629Z,99.90
2019-01-29T08:05:29.127Z,99.90
2019-01-29T08:07:57.772Z,99.90
2019-01-29T08:10:26.223Z,99.90
2019-01-29T08:12:56.661Z,99.90
2019-01-29T08:15:25.371Z,99.90
2019-01-29T08:17:53.879Z,99.90
2019-01-29T08:20:22.330Z,99.90
2019-01-29T08:22:50.771Z,99.90
2019-01-29T08:25:19.288Z,99.90
2019-01-29T08:27:47.726Z,99.90
2019-01-29T08:30:25.756Z,99.90
2019-01-29T08:32:59.988Z,99.90
2019-01-29T08:35:28.478Z,99.90
2019-01-29T08:38:02.987Z,99.90
2019-01-29T08:40:31.437Z,99.90
2019-01-29T08:42:59.870Z,99.90
2019-01-29T08:45:28.460Z,99.90
2019-01-29T08:47:56.917Z,99.90
2019-01-29T08:50:26.801Z,99.90
2019-01-29T08:52:55.316Z,99.90
2019-01-29T08:55:23.987Z,99.90
2019-01-29T08:57:52.438Z,99.90
2019-01-29T09:00:22.012Z,99.90
2019-01-29T09:02:50.734Z,99.90
2019-01-29T09:05:19.252Z,99.90
2019-01-29T09:07:47.764Z,99.90
2019-01-29T09:10:22.843Z,99.90
2019-01-29T09:12:51.567Z,99.90
2019-01-29T09:15:21.342Z,99.90
2019-01-29T09:17:53.102Z,99.90
2019-01-29T09:20:23.598Z,99.90
2019-01-29T09:22:52.043Z,99.90
2019-01-29T09:25:22.707Z,99.90
2019-01-29T09:27:52.827Z,99.90
2019-01-29T09:30:22.109Z,99.90
2019-01-29T09:32:56.858Z,99.90
2019-01-29T09:35:25.299Z,99.90
2019-01-29T09:37:53.739Z,99.90
2019-01-29T09:40:24.319Z,99.90
2019-01-29T09:42:52.939Z,99.90
2019-01-29T09:45:21.923Z,99.90
2019-01-29T09:47:50.432Z,99.90
2019-01-29T09:50:23.114Z,99.90
2019-01-29T09:52:52.187Z,99.90
2019-01-29T09:55:28.822Z,99.90
2019-01-29T09:57:52.705Z,99.90
2019-01-29T10:00:29.867Z,99.90
2019-01-29T10:03:01.347Z,99.90
2019-01-29T10:05:29.864Z,99.90
2019-01-29T10:07:58.375Z,99.90
2019-01-29T10:10:26.984Z,99.90
2019-01-29T10:12:55.754Z,99.90
2019-01-29T10:15:32.768Z,99.90
2019-01-29T10:18:01.511Z,99.90
2019-01-29T10:20:30.905Z,99.90
2019-01-29T10:22:59.419Z,99.90
2019-01-29T10:25:28.097Z,99.90
2019-01-29T10:27:56.523Z,99.90
2019-01-29T10:30:27.947Z,99.90
2019-01-29T10:32:56.721Z,99.90
2019-01-29T10:35:31.855Z,99.90
2019-01-29T10:38:00.287Z,99.90
2019-01-29T10:40:28.859Z,99.90
2019-01-29T10:42:58.244Z,99.90
2019-01-29T10:45:29.330Z,99.90
2019-01-29T10:47:57.913Z,99.90
2019-01-29T10:50:29.648Z,99.90
2019-01-29T10:52:58.626Z,99.90
2019-01-29T10:55:27.499Z,99.90
2019-01-29T10:57:56.321Z,99.90
2019-01-29T11:00:37.178Z,99.90
2019-01-29T11:03:09.292Z,99.90
2019-01-29T11:05:43.534Z,99.90
2019-01-29T11:08:13.223Z,99.90
2019-01-29T11:10:41.723Z,99.90
2019-01-29T11:13:18.962Z,99.90
2019-01-29T11:15:47.461Z,99.90
2019-01-29T11:18:16.040Z,99.90
2019-01-29T11:20:44.633Z,99.90
2019-01-29T11:23:13.228Z,99.90
2019-01-29T11:25:44.061Z,99.90
2019-01-29T11:28:12.613Z,99.90
2019-01-29T11:30:47.296Z,99.90
2019-01-29T11:33:15.888Z,99.90
2019-01-29T11:35:44.480Z,99.90
2019-01-29T11:38:12.920Z,99.90
2019-01-29T11:40:41.499Z,99.90
2019-01-29T11:43:10.095Z,99.90
2019-01-29T11:45:45.165Z,99.90
2019-01-29T11:48:13.610Z,99.90
2019-01-29T11:50:42.081Z,99.90
2019-01-29T11:53:10.686Z,99.90
2019-01-29T11:55:39.148Z,99.90
2019-01-29T11:58:07.799Z,99.90
2019-01-29T12:00:39.122Z,99.90
2019-01-29T12:03:07.717Z,99.90
2019-01-29T12:05:36.216Z,99.90
2019-01-29T12:08:06.099Z,99.90
2019-01-29T12:10:34.716Z,99.90
2019-01-29T12:13:03.166Z,99.90
2019-01-29T12:15:31.602Z,99.90
2019-01-29T12:18:00.070Z,99.90
2019-01-29T12:20:28.684Z,99.90
2019-01-29T12:22:59.860Z,99.90
2019-01-29T12:25:29.393Z,99.90
2019-01-29T12:27:57.887Z,99.90
2019-01-29T12:30:30.678Z,99.90
2019-01-29T12:33:01.575Z,99.90
2019-01-29T12:35:30.084Z,99.90
2019-01-29T12:37:58.514Z,99.90
2019-01-29T12:40:26.959Z,99.90
2019-01-29T12:42:55.393Z,99.90
2019-01-29T12:45:24.087Z,99.90
2019-01-29T12:47:52.695Z,97.80
2019-01-29T12:50:24.347Z,97.00
2019-01-29T12:53:03.688Z,96.30
2019-01-29T12:55:32.071Z,97.40
2019-01-29T12:58:00.794Z,97.40
2019-01-29T13:00:30.956Z,98.00
2019-01-29T13:02:59.455Z,98.40
2019-01-29T13:05:28.058Z,98.80
2019-01-29T13:07:56.551Z,99.20
2019-01-29T13:10:26.038Z,99.00
2019-01-29T13:12:54.606Z,98.70
2019-01-29T13:15:28.803Z,99.20
2019-01-29T13:17:58.870Z,98.40
2019-01-29T13:20:27.391Z,97.50
2019-01-29T13:22:55.964Z,96.50
2019-01-29T13:25:24.863Z,97.10
2019-01-29T13:27:53.432Z,96.50
2019-01-29T13:30:30.354Z,96.30
2019-01-29T13:32:58.850Z,96.50
2019-01-29T13:35:30.245Z,96.80
2019-01-29T13:37:59.046Z,97.50
2019-01-29T13:40:27.540Z,97.10
2019-01-29T13:42:55.993Z,96.90
2019-01-29T13:45:24.563Z,95.70
2019-01-29T13:47:53.087Z,95.90
2019-01-29T13:50:27.116Z,96.20
2019-01-29T13:52:55.567Z,96.10
2019-01-29T13:55:24.536Z,96.50
2019-01-29T13:57:53.134Z,96.60
2019-01-29T14:00:30.668Z,96.20
2019-01-29T14:02:59.351Z,95.60
2019-01-29T14:05:27.944Z,96.30
2019-01-29T14:07:56.399Z,96.80
2019-01-29T14:10:24.902Z,97.20
2019-01-29T14:12:53.414Z,97.40
2019-01-29T14:15:27.667Z,96.90
2019-01-29T14:17:56.345Z,97.60
2019-01-29T14:20:24.809Z,98.70
2019-01-29T14:22:53.384Z,98.70
2019-01-29T14:25:21.888Z,99.00
2019-01-29T14:27:50.331Z,99.90
2019-01-29T14:30:24.389Z,99.90
2019-01-29T14:32:52.830Z,99.90
2019-01-29T14:35:22.152Z,99.90
2019-01-29T14:38:03.740Z,99.90
2019-01-29T14:40:36.741Z,99.90
2019-01-29T14:43:07.852Z,99.90
2019-01-29T14:45:36.422Z,99.90
2019-01-29T14:48:05.306Z,99.90
2019-01-29T14:50:36.763Z,99.90
2019-01-29T14:53:06.363Z,99.90
2019-01-29T14:55:34.791Z,99.90
2019-01-29T14:58:03.424Z,99.90
2019-01-29T15:00:37.648Z,99.90
2019-01-29T15:03:06.321Z,99.90
2019-01-29T15:05:36.113Z,99.90
2019-01-29T15:08:05.692Z,99.90
2019-01-29T15:10:34.363Z,99.90
2019-01-29T15:13:02.935Z,99.90
2019-01-29T15:15:39.947Z,99.90
2019-01-29T15:18:28.217Z,99.90
2019-01-29T15:21:04.634Z,99.90
2019-01-29T15:23:33.276Z,99.90
2019-01-29T15:26:01.741Z,99.90
2019-01-29T15:28:30.271Z,99.90
2019-01-29T15:30:58.816Z,99.90
2019-01-29T15:33:27.337Z,99.90
2019-01-29T15:35:56.798Z,99.90
2019-01-29T15:38:25.539Z,99.90
2019-01-29T15:40:54.034Z,99.90
2019-01-29T15:43:28.441Z,99.90
2019-01-29T15:45:56.907Z,99.90
2019-01-29T15:48:25.443Z,99.90
2019-01-29T15:50:54.044Z,99.90
2019-01-29T15:53:22.483Z,99.90
2019-01-29T15:55:50.961Z,99.90
2019-01-29T15:58:19.628Z,99.90
2019-01-29T16:00:51.148Z,99.90
2019-01-29T16:03:19.663Z,99.90
2019-01-29T16:05:48.160Z,99.90
2019-01-29T16:08:16.680Z,99.90
2019-01-29T16:10:46.148Z,99.90
2019-01-29T16:13:14.630Z,99.90
2019-01-29T16:15:43.671Z,99.90
2019-01-29T16:18:13.460Z,99.90
2019-01-29T16:20:42.045Z,99.90
2019-01-29T16:23:10.501Z,99.90
2019-01-29T16:25:39.531Z,99.90
2019-01-29T16:28:08.159Z,99.90
2019-01-29T16:30:38.526Z,99.90
2019-01-29T16:33:07.889Z,99.90
2019-01-29T16:35:38.176Z,99.90
2019-01-29T16:38:08.427Z,99.90
2019-01-29T16:40:42.125Z,99.90
2019-01-29T16:43:10.592Z,99.90
2019-01-29T16:45:39.403Z,99.90
2019-01-29T16:48:09.320Z,99.90
2019-01-29T16:50:38.003Z,99.90
2019-01-29T16:53:08.171Z,99.90
2019-01-29T16:55:36.990Z,99.90
2019-01-29T16:58:07.599Z,99.90
2019-01-29T17:00:38.192Z,99.90
2019-01-29T17:03:06.688Z,99.90
2019-01-29T17:05:35.280Z,99.90
2019-01-29T17:08:04.539Z,99.90
2019-01-29T17:10:34.040Z,99.90
2019-01-29T17:13:02.675Z,99.90
2019-01-29T17:15:32.835Z,99.90
2019-01-29T17:18:02.750Z,99.90
2019-01-29T17:20:41.833Z,99.90
2019-01-29T17:23:11.100Z,99.90
2019-01-29T17:25:40.547Z,99.90
2019-01-29T17:28:09.117Z,99.90
2019-01-29T17:30:42.999Z,99.90
2019-01-29T17:33:13.747Z,99.90
2019-01-29T17:35:42.420Z,99.90
2019-01-29T17:38:11.617Z,99.90
2019-01-29T17:40:40.140Z,99.90
2019-01-29T17:43:08.715Z,99.90
2019-01-29T17:45:39.909Z,99.90
2019-01-29T17:48:08.478Z,99.90
2019-01-29T17:50:39.499Z,99.90
2019-01-29T17:53:08.002Z,99.90
2019-01-29T17:55:38.089Z,99.90
2019-01-29T17:58:07.278Z,99.90
2019-01-29T18:00:37.592Z,99.90
2019-01-29T18:03:08.085Z,99.90
2019-01-29T18:05:36.780Z,99.90
2019-01-29T18:08:05.501Z,99.90
2019-01-29T18:10:35.072Z,99.90
2019-01-29T18:13:03.587Z,99.90
2019-01-29T18:15:32.359Z,99.90
2019-01-29T18:18:00.877Z,99.90
2019-01-29T18:20:29.456Z,99.90
2019-01-29T18:22:57.967Z,99.90
2019-01-29T18:25:26.475Z,99.90
2019-01-29T18:28:01.021Z,99.90
2019-01-29T18:30:30.425Z,99.90
2019-01-29T18:32:59.147Z,99.90
2019-01-29T18:35:27.721Z,99.90
2019-01-29T18:37:56.309Z,99.90
2019-01-29T18:43:08.092Z,99.90
2019-01-29T18:45:36.667Z,99.90
2019-01-29T18:48:05.116Z,99.90
2019-01-29T18:50:33.649Z,99.90
2019-01-29T18:53:02.148Z,99.90
2019-01-29T18:55:30.588Z,99.90
2019-01-29T18:57:59.018Z,99.90
2019-01-29T19:00:27.544Z,99.90
2019-01-29T19:02:56.139Z,99.90
2019-01-29T19:05:26.344Z,99.90
2019-01-29T19:07:54.783Z,99.90
2019-01-29T19:10:24.830Z,99.90
2019-01-29T19:12:53.345Z,99.90
2019-01-29T19:15:46.519Z,99.90
2019-01-29T19:18:15.087Z,99.90
2019-01-29T19:20:43.539Z,99.90
2019-01-29T19:23:11.989Z,99.90
2019-01-29T19:25:40.455Z,99.90
2019-01-29T19:28:08.884Z,99.90
2019-01-29T19:30:37.404Z,99.90
2019-01-29T19:33:05.834Z,99.90
2019-01-29T19:35:34.295Z,99.90
2019-01-29T19:38:02.794Z,99.90
2019-01-29T19:40:31.248Z,99.90
2019-01-29T19:42:59.705Z,99.90
2019-01-29T19:45:35.123Z,99.90
2019-01-29T19:48:05.358Z,99.90
2019-01-29T19:50:33.872Z,99.90
2019-01-29T19:53:02.308Z,99.90
2019-01-29T19:55:30.817Z,99.90
2019-01-29T19:58:08.627Z,99.90
2019-01-29T20:00:36.310Z,99.90
2019-01-29T20:03:05.386Z,99.90
2019-01-29T20:05:34.183Z,99.90
2019-01-29T20:08:02.638Z,99.90
2019-01-29T20:10:31.352Z,99.90
2019-01-29T20:12:59.855Z,99.90
2019-01-29T20:15:28.426Z,99.90
2019-01-29T20:17:58.528Z,99.90
2019-01-29T20:20:30.028Z,99.90
2019-01-29T20:23:07.662Z,99.90
2019-01-29T20:25:28.805Z,99.90
2019-01-29T20:27:57.262Z,99.90
2019-01-29T20:30:28.590Z,99.90
2019-01-29T20:32:57.220Z,99.90
2019-01-29T20:35:25.821Z,99.90
2019-01-29T20:37:54.268Z,99.90
2019-01-29T20:40:24.462Z,99.90
2019-01-29T20:42:58.392Z,99.90
2019-01-29T20:45:27.039Z,99.90
2019-01-29T20:47:55.647Z,99.90
2019-01-29T20:50:29.596Z,99.90
2019-01-29T20:52:58.188Z,99.90
2019-01-29T20:55:26.638Z,99.90
2019-01-29T20:57:55.578Z,99.90
2019-01-29T21:00:35.460Z,99.90
2019-01-29T21:03:04.951Z,99.90
2019-01-29T21:05:33.752Z,99.90
2019-01-29T21:08:03.039Z,99.90
2019-01-29T21:10:31.619Z,99.90
2019-01-29T21:13:00.065Z,99.90
2019-01-29T21:15:38.165Z,99.90
2019-01-29T21:17:59.422Z,99.90
2019-01-29T21:20:30.362Z,99.90
2019-01-29T21:22:58.923Z,99.90
2019-01-29T21:25:27.511Z,99.90
2019-01-29T21:27:56.237Z,99.90
2019-01-29T21:30:36.649Z,99.90
2019-01-29T21:33:05.162Z,99.90
2019-01-29T21:35:34.240Z,99.90
2019-01-29T21:38:02.796Z,99.90
2019-01-29T21:40:31.319Z,99.90
2019-01-29T21:42:59.743Z,99.90
2019-01-29T21:45:28.196Z,99.90
2019-01-29T21:47:58.764Z,99.90
2019-01-29T21:50:29.715Z,99.90
2019-01-29T21:52:58.298Z,99.90
2019-01-29T21:55:27.059Z,99.90
2019-01-29T21:57:55.724Z,99.90
2019-01-29T22:00:39.021Z,99.90
2019-01-29T22:03:07.953Z,99.90
2019-01-29T22:05:36.535Z,99.90
2019-01-29T22:08:07.027Z,99.90
2019-01-29T22:10:35.638Z,99.90
2019-01-29T22:13:04.926Z,99.90
2019-01-29T22:15:33.367Z,99.90
2019-01-29T22:18:02.103Z,99.90
2019-01-29T22:20:30.547Z,99.90
2019-01-29T22:22:59.104Z,99.90
2019-01-29T22:25:32.307Z,99.90
2019-01-29T22:28:00.832Z,99.90
2019-01-29T22:30:34.521Z,99.90
2019-01-29T22:33:03.183Z,99.90
2019-01-29T22:35:31.747Z,99.90
2019-01-29T22:38:00.282Z,99.90
2019-01-29T22:40:30.256Z,99.90
2019-01-29T22:42:59.852Z,99.90
2019-01-29T22:45:28.439Z,99.90
2019-01-29T22:47:56.992Z,99.90
2019-01-29T22:50:31.304Z,99.90
2019-01-29T22:52:59.891Z,99.90
2019-01-29T22:55:28.474Z,99.90
2019-01-29T22:57:57.015Z,99.90
2019-01-29T23:00:48.652Z,99.90
2019-01-29T23:03:32.106Z,99.90
2019-01-29T23:06:06.595Z,99.90
2019-01-29T23:08:35.124Z,99.90
2019-01-29T23:11:03.828Z,99.90
2019-01-29T23:13:32.411Z,99.90
2019-01-29T23:16:00.852Z,99.90
2019-01-29T23:18:32.940Z,99.90
2019-01-29T23:21:01.445Z,99.90
2019-01-29T23:23:29.959Z,99.90
2019-01-29T23:25:58.416Z,99.90
2019-01-29T23:28:26.850Z,99.90
2019-01-29T23:30:55.295Z,99.90
2019-01-29T23:33:23.732Z,99.90
2019-01-29T23:35:52.251Z,99.90
2019-01-29T23:38:20.674Z,99.90
2019-01-29T23:40:49.115Z,99.90
2019-01-29T23:43:17.554Z,99.90
2019-01-29T23:45:46.000Z,99.90
2019-01-29T23:48:14.427Z,99.90
2019-01-29T23:50:42.864Z,99.90
2019-01-29T23:53:11.367Z,99.90
2019-01-29T23:55:39.828Z,99.90
2019-01-29T23:58:08.260Z,99.90
